sensor_id;sensor_type;location;lat;lon;timestamp;temperature;humidity
37232;DHT22;23125;48.156;15.954;2023-07-08T00:01:38;20.00;43.40
37232;DHT22;23125;48.156;15.954;2023-07-08T00:04:04;20.00;43.40
37232;DHT22;23125;48.156;15.954;2023-07-08T00:06:30;20.00;43.40
37232;DHT22;23125;48.156;15.954;2023-07-08T00:08:56;19.90;43.50
37232;DHT22;23125;48.156;15.954;2023-07-08T00:11:22;19.90;43.60
37232;DHT22;23125;48.156;15.954;2023-07-08T00:13:48;19.90;43.70
37232;DHT22;23125;48.156;15.954;2023-07-08T00:16:15;19.90;43.70
37232;DHT22;23125;48.156;15.954;2023-07-08T00:18:41;19.90;43.80
37232;DHT22;23125;48.156;15.954;2023-07-08T00:21:10;19.90;44.00
37232;DHT22;23125;48.156;15.954;2023-07-08T00:23:43;19.80;43.90
37232;DHT22;23125;48.156;15.954;2023-07-08T00:26:10;19.80;44.00
37232;DHT22;23125;48.156;15.954;2023-07-08T00:28:37;19.80;44.10
37232;DHT22;23125;48.156;15.954;2023-07-08T00:31:07;19.70;44.10
37232;DHT22;23125;48.156;15.954;2023-07-08T00:33:33;19.70;44.10
37232;DHT22;23125;48.156;15.954;2023-07-08T00:35:59;19.70;44.10
37232;DHT22;23125;48.156;15.954;2023-07-08T00:38:26;19.60;44.70
37232;DHT22;23125;48.156;15.954;2023-07-08T00:43:30;19.60;44.10
37232;DHT22;23125;48.156;15.954;2023-07-08T00:46:01;19.50;44.20
37232;DHT22;23125;48.156;15.954;2023-07-08T00:48:30;19.50;44.30
37232;DHT22;23125;48.156;15.954;2023-07-08T00:50:57;19.50;44.30
37232;DHT22;23125;48.156;15.954;2023-07-08T00:56:01;19.40;44.40
37232;DHT22;23125;48.156;15.954;2023-07-08T00:58:30;19.40;44.40
37232;DHT22;23125;48.156;15.954;2023-07-08T01:00:58;19.40;44.40
37232;DHT22;23125;48.156;15.954;2023-07-08T01:03:24;19.30;44.40
37232;DHT22;23125;48.156;15.954;2023-07-08T01:05:50;19.30;44.40
37232;DHT22;23125;48.156;15.954;2023-07-08T01:08:17;19.30;44.40
37232;DHT22;23125;48.156;15.954;2023-07-08T01:10:44;19.30;44.50
37232;DHT22;23125;48.156;15.954;2023-07-08T01:13:11;19.20;44.50
37232;DHT22;23125;48.156;15.954;2023-07-08T01:15:40;19.20;44.70
37232;DHT22;23125;48.156;15.954;2023-07-08T01:18:07;19.20;44.70
37232;DHT22;23125;48.156;15.954;2023-07-08T01:20:33;19.10;44.70
37232;DHT22;23125;48.156;15.954;2023-07-08T01:22:59;19.10;44.80
37232;DHT22;23125;48.156;15.954;2023-07-08T01:25:25;19.10;44.90
37232;DHT22;23125;48.156;15.954;2023-07-08T01:27:52;19.10;44.90
37232;DHT22;23125;48.156;15.954;2023-07-08T01:30:18;19.10;45.00
37232;DHT22;23125;48.156;15.954;2023-07-08T01:32:48;19.00;45.10
37232;DHT22;23125;48.156;15.954;2023-07-08T01:35:15;19.00;45.10
37232;DHT22;23125;48.156;15.954;2023-07-08T01:37:42;19.00;45.10
37232;DHT22;23125;48.156;15.954;2023-07-08T01:40:15;18.90;45.10
37232;DHT22;23125;48.156;15.954;2023-07-08T01:42:41;18.90;45.20
37232;DHT22;23125;48.156;15.954;2023-07-08T01:45:10;18.90;45.30
37232;DHT22;23125;48.156;15.954;2023-07-08T01:47:36;18.90;45.40
37232;DHT22;23125;48.156;15.954;2023-07-08T01:50:02;18.80;46.00
37232;DHT22;23125;48.156;15.954;2023-07-08T01:52:28;18.80;45.40
37232;DHT22;23125;48.156;15.954;2023-07-08T01:54:56;18.80;45.40
37232;DHT22;23125;48.156;15.954;2023-07-08T01:57:22;18.80;45.50
37232;DHT22;23125;48.156;15.954;2023-07-08T01:59:48;18.80;45.50
37232;DHT22;23125;48.156;15.954;2023-07-08T02:02:13;18.70;45.40
37232;DHT22;23125;48.156;15.954;2023-07-08T02:04:39;18.70;45.50
37232;DHT22;23125;48.156;15.954;2023-07-08T02:07:05;18.70;45.50
37232;DHT22;23125;48.156;15.954;2023-07-08T02:09:30;18.70;45.60
37232;DHT22;23125;48.156;15.954;2023-07-08T02:11:56;18.60;45.50
37232;DHT22;23125;48.156;15.954;2023-07-08T02:14:22;18.60;45.50
37232;DHT22;23125;48.156;15.954;2023-07-08T02:16:48;18.60;45.60
37232;DHT22;23125;48.156;15.954;2023-07-08T02:19:13;18.50;45.60
37232;DHT22;23125;48.156;15.954;2023-07-08T02:21:39;18.50;45.60
37232;DHT22;23125;48.156;15.954;2023-07-08T02:24:05;18.50;45.80
37232;DHT22;23125;48.156;15.954;2023-07-08T02:26:31;18.40;45.70
37232;DHT22;23125;48.156;15.954;2023-07-08T02:29:00;18.40;45.80
37232;DHT22;23125;48.156;15.954;2023-07-08T02:31:26;18.40;45.80
37232;DHT22;23125;48.156;15.954;2023-07-08T02:33:52;18.40;45.90
37232;DHT22;23125;48.156;15.954;2023-07-08T02:36:18;18.40;45.90
37232;DHT22;23125;48.156;15.954;2023-07-08T02:38:44;18.30;45.90
37232;DHT22;23125;48.156;15.954;2023-07-08T02:41:10;18.30;45.90
37232;DHT22;23125;48.156;15.954;2023-07-08T02:43:39;18.30;46.00
37232;DHT22;23125;48.156;15.954;2023-07-08T02:46:05;18.30;46.10
37232;DHT22;23125;48.156;15.954;2023-07-08T02:48:31;18.20;46.00
37232;DHT22;23125;48.156;15.954;2023-07-08T02:51:00;18.20;46.10
37232;DHT22;23125;48.156;15.954;2023-07-08T02:53:26;18.20;46.20
37232;DHT22;23125;48.156;15.954;2023-07-08T02:55:52;18.20;46.30
37232;DHT22;23125;48.156;15.954;2023-07-08T02:58:17;18.20;46.30
37232;DHT22;23125;48.156;15.954;2023-07-08T03:00:43;18.10;46.20
37232;DHT22;23125;48.156;15.954;2023-07-08T03:03:09;18.10;46.20
37232;DHT22;23125;48.156;15.954;2023-07-08T03:05:34;18.10;46.30
37232;DHT22;23125;48.156;15.954;2023-07-08T03:08:00;18.10;46.30
37232;DHT22;23125;48.156;15.954;2023-07-08T03:10:26;18.10;46.40
37232;DHT22;23125;48.156;15.954;2023-07-08T03:12:51;18.00;46.40
37232;DHT22;23125;48.156;15.954;2023-07-08T03:15:17;18.00;46.40
37232;DHT22;23125;48.156;15.954;2023-07-08T03:17:43;18.00;46.50
37232;DHT22;23125;48.156;15.954;2023-07-08T03:20:09;18.00;46.50
37232;DHT22;23125;48.156;15.954;2023-07-08T03:22:36;18.00;46.60
37232;DHT22;23125;48.156;15.954;2023-07-08T03:25:02;18.00;46.70
37232;DHT22;23125;48.156;15.954;2023-07-08T03:27:28;18.00;46.80
37232;DHT22;23125;48.156;15.954;2023-07-08T03:29:54;18.00;46.90
37232;DHT22;23125;48.156;15.954;2023-07-08T03:32:20;17.90;46.90
37232;DHT22;23125;48.156;15.954;2023-07-08T03:34:45;17.90;47.10
37232;DHT22;23125;48.156;15.954;2023-07-08T03:37:11;17.90;47.10
37232;DHT22;23125;48.156;15.954;2023-07-08T03:39:37;18.00;47.30
37232;DHT22;23125;48.156;15.954;2023-07-08T03:42:02;18.00;47.30
37232;DHT22;23125;48.156;15.954;2023-07-08T03:44:29;18.00;47.40
37232;DHT22;23125;48.156;15.954;2023-07-08T03:46:55;18.00;47.50
37232;DHT22;23125;48.156;15.954;2023-07-08T03:49:22;18.00;47.50
37232;DHT22;23125;48.156;15.954;2023-07-08T03:51:50;18.00;47.60
37232;DHT22;23125;48.156;15.954;2023-07-08T03:54:16;18.10;47.70
37232;DHT22;23125;48.156;15.954;2023-07-08T03:56:43;18.10;47.80
37232;DHT22;23125;48.156;15.954;2023-07-08T03:59:08;18.10;47.80
37232;DHT22;23125;48.156;15.954;2023-07-08T04:01:34;18.10;47.90
37232;DHT22;23125;48.156;15.954;2023-07-08T04:04:00;18.20;48.10
37232;DHT22;23125;48.156;15.954;2023-07-08T04:06:26;18.20;48.10
37232;DHT22;23125;48.156;15.954;2023-07-08T04:08:54;18.30;48.20
37232;DHT22;23125;48.156;15.954;2023-07-08T04:11:20;18.30;48.20
37232;DHT22;23125;48.156;15.954;2023-07-08T04:13:46;18.30;48.30
37232;DHT22;23125;48.156;15.954;2023-07-08T04:16:25;18.40;48.40
37232;DHT22;23125;48.156;15.954;2023-07-08T04:18:54;18.40;48.50
37232;DHT22;23125;48.156;15.954;2023-07-08T04:21:21;18.50;48.70
37232;DHT22;23125;48.156;15.954;2023-07-08T04:23:47;18.60;48.90
37232;DHT22;23125;48.156;15.954;2023-07-08T04:26:13;18.70;49.10
37232;DHT22;23125;48.156;15.954;2023-07-08T04:28:38;18.70;49.20
37232;DHT22;23125;48.156;15.954;2023-07-08T04:31:04;18.80;49.30
37232;DHT22;23125;48.156;15.954;2023-07-08T04:33:30;18.90;49.50
37232;DHT22;23125;48.156;15.954;2023-07-08T04:35:56;19.00;49.60
37232;DHT22;23125;48.156;15.954;2023-07-08T04:38:23;19.10;49.70
37232;DHT22;23125;48.156;15.954;2023-07-08T04:40:50;19.20;49.60
37232;DHT22;23125;48.156;15.954;2023-07-08T04:43:19;19.30;49.70
37232;DHT22;23125;48.156;15.954;2023-07-08T04:45:46;19.40;49.60
37232;DHT22;23125;48.156;15.954;2023-07-08T04:48:16;19.50;49.60
37232;DHT22;23125;48.156;15.954;2023-07-08T04:50:43;19.60;49.60
37232;DHT22;23125;48.156;15.954;2023-07-08T04:53:09;19.70;49.60
37232;DHT22;23125;48.156;15.954;2023-07-08T04:55:36;19.80;49.60
37232;DHT22;23125;48.156;15.954;2023-07-08T04:58:02;19.90;49.60
37232;DHT22;23125;48.156;15.954;2023-07-08T05:00:28;20.00;49.60
37232;DHT22;23125;48.156;15.954;2023-07-08T05:02:54;20.10;49.70
37232;DHT22;23125;48.156;15.954;2023-07-08T05:05:20;20.20;49.80
37232;DHT22;23125;48.156;15.954;2023-07-08T05:07:46;20.30;49.80
37232;DHT22;23125;48.156;15.954;2023-07-08T05:10:12;20.40;49.90
37232;DHT22;23125;48.156;15.954;2023-07-08T05:12:38;20.60;50.10
37232;DHT22;23125;48.156;15.954;2023-07-08T05:15:03;20.70;50.20
37232;DHT22;23125;48.156;15.954;2023-07-08T05:17:29;20.90;50.60
37232;DHT22;23125;48.156;15.954;2023-07-08T05:19:55;21.20;50.80
37232;DHT22;23125;48.156;15.954;2023-07-08T05:22:26;21.50;51.80
37232;DHT22;23125;48.156;15.954;2023-07-08T05:24:52;21.90;51.50
37232;DHT22;23125;48.156;15.954;2023-07-08T05:27:23;22.30;51.00
37232;DHT22;23125;48.156;15.954;2023-07-08T05:29:49;22.70;50.90
37232;DHT22;23125;48.156;15.954;2023-07-08T05:32:16;23.10;51.00
37232;DHT22;23125;48.156;15.954;2023-07-08T05:34:42;23.60;51.40
37232;DHT22;23125;48.156;15.954;2023-07-08T05:37:08;24.20;51.50
37232;DHT22;23125;48.156;15.954;2023-07-08T05:39:33;24.70;51.40
37232;DHT22;23125;48.156;15.954;2023-07-08T05:42:00;25.30;51.20
37232;DHT22;23125;48.156;15.954;2023-07-08T05:44:25;25.80;50.60
37232;DHT22;23125;48.156;15.954;2023-07-08T05:46:51;26.40;49.80
37232;DHT22;23125;48.156;15.954;2023-07-08T05:49:17;26.90;49.40
37232;DHT22;23125;48.156;15.954;2023-07-08T05:51:43;27.60;48.90
37232;DHT22;23125;48.156;15.954;2023-07-08T05:54:09;28.50;49.20
37232;DHT22;23125;48.156;15.954;2023-07-08T05:56:35;29.30;48.40
37232;DHT22;23125;48.156;15.954;2023-07-08T05:59:00;30.00;47.90
37232;DHT22;23125;48.156;15.954;2023-07-08T06:01:26;30.80;47.30
37232;DHT22;23125;48.156;15.954;2023-07-08T06:03:52;31.50;46.40
37232;DHT22;23125;48.156;15.954;2023-07-08T06:06:18;32.00;44.60
37232;DHT22;23125;48.156;15.954;2023-07-08T06:08:43;32.60;44.20
37232;DHT22;23125;48.156;15.954;2023-07-08T06:11:09;33.10;43.20
37232;DHT22;23125;48.156;15.954;2023-07-08T06:13:35;33.60;42.60
37232;DHT22;23125;48.156;15.954;2023-07-08T06:16:00;34.20;42.40
37232;DHT22;23125;48.156;15.954;2023-07-08T06:18:26;34.70;41.90
37232;DHT22;23125;48.156;15.954;2023-07-08T06:20:55;35.30;41.80
37232;DHT22;23125;48.156;15.954;2023-07-08T06:23:22;35.80;41.00
37232;DHT22;23125;48.156;15.954;2023-07-08T06:25:47;36.00;39.20
37232;DHT22;23125;48.156;15.954;2023-07-08T06:28:13;36.00;38.60
37232;DHT22;23125;48.156;15.954;2023-07-08T06:30:39;36.20;39.10
37232;DHT22;23125;48.156;15.954;2023-07-08T06:33:05;36.70;39.20
37232;DHT22;23125;48.156;15.954;2023-07-08T06:35:30;37.10;38.50
37232;DHT22;23125;48.156;15.954;2023-07-08T06:37:56;37.60;38.20
37232;DHT22;23125;48.156;15.954;2023-07-08T06:40:22;38.00;37.80
37232;DHT22;23125;48.156;15.954;2023-07-08T06:42:48;38.40;37.10
37232;DHT22;23125;48.156;15.954;2023-07-08T06:45:14;38.90;36.90
37232;DHT22;23125;48.156;15.954;2023-07-08T06:47:40;39.20;35.40
37232;DHT22;23125;48.156;15.954;2023-07-08T06:50:05;39.30;34.90
37232;DHT22;23125;48.156;15.954;2023-07-08T06:52:32;39.50;34.50
37232;DHT22;23125;48.156;15.954;2023-07-08T06:55:00;39.80;34.40
37232;DHT22;23125;48.156;15.954;2023-07-08T06:57:26;40.00;34.10
37232;DHT22;23125;48.156;15.954;2023-07-08T06:59:52;40.40;33.80
37232;DHT22;23125;48.156;15.954;2023-07-08T07:02:18;40.70;33.50
37232;DHT22;23125;48.156;15.954;2023-07-08T07:04:45;41.00;32.80
37232;DHT22;23125;48.156;15.954;2023-07-08T07:07:11;41.20;32.50
37232;DHT22;23125;48.156;15.954;2023-07-08T07:09:37;41.40;31.80
37232;DHT22;23125;48.156;15.954;2023-07-08T07:12:04;41.60;31.40
37232;DHT22;23125;48.156;15.954;2023-07-08T07:14:31;41.70;30.00
37232;DHT22;23125;48.156;15.954;2023-07-08T07:16:56;41.40;29.20
37232;DHT22;23125;48.156;15.954;2023-07-08T07:19:22;41.30;29.50
37232;DHT22;23125;48.156;15.954;2023-07-08T07:21:48;40.90;28.70
37232;DHT22;23125;48.156;15.954;2023-07-08T07:24:13;40.90;29.10
37232;DHT22;23125;48.156;15.954;2023-07-08T07:26:39;40.90;29.10
37232;DHT22;23125;48.156;15.954;2023-07-08T07:29:05;40.70;28.50
37232;DHT22;23125;48.156;15.954;2023-07-08T07:31:30;40.80;28.70
37232;DHT22;23125;48.156;15.954;2023-07-08T07:33:58;40.90;28.60
37232;DHT22;23125;48.156;15.954;2023-07-08T07:36:24;40.90;28.40
37232;DHT22;23125;48.156;15.954;2023-07-08T07:38:50;41.30;28.60
37232;DHT22;23125;48.156;15.954;2023-07-08T07:41:16;41.50;28.20
37232;DHT22;23125;48.156;15.954;2023-07-08T07:43:42;41.80;27.80
37232;DHT22;23125;48.156;15.954;2023-07-08T07:46:07;41.80;27.40
37232;DHT22;23125;48.156;15.954;2023-07-08T07:48:33;41.80;26.60
37232;DHT22;23125;48.156;15.954;2023-07-08T07:50:59;41.80;26.60
37232;DHT22;23125;48.156;15.954;2023-07-08T07:53:25;41.80;26.20
37232;DHT22;23125;48.156;15.954;2023-07-08T07:55:57;41.90;26.50
37232;DHT22;23125;48.156;15.954;2023-07-08T07:58:23;41.90;25.80
37232;DHT22;23125;48.156;15.954;2023-07-08T08:00:49;41.90;25.40
37232;DHT22;23125;48.156;15.954;2023-07-08T08:03:15;41.80;25.20
37232;DHT22;23125;48.156;15.954;2023-07-08T08:05:42;41.80;25.00
37232;DHT22;23125;48.156;15.954;2023-07-08T08:08:08;41.70;24.90
37232;DHT22;23125;48.156;15.954;2023-07-08T08:10:34;41.40;24.40
37232;DHT22;23125;48.156;15.954;2023-07-08T08:13:00;41.20;24.30
37232;DHT22;23125;48.156;15.954;2023-07-08T08:15:26;41.00;24.70
37232;DHT22;23125;48.156;15.954;2023-07-08T08:17:52;41.00;24.90
37232;DHT22;23125;48.156;15.954;2023-07-08T08:20:21;40.90;24.50
37232;DHT22;23125;48.156;15.954;2023-07-08T08:22:47;40.60;24.40
37232;DHT22;23125;48.156;15.954;2023-07-08T08:25:14;40.30;24.20
37232;DHT22;23125;48.156;15.954;2023-07-08T08:27:40;40.10;24.50
37232;DHT22;23125;48.156;15.954;2023-07-08T08:30:06;40.10;24.80
37232;DHT22;23125;48.156;15.954;2023-07-08T08:32:32;40.10;24.70
37232;DHT22;23125;48.156;15.954;2023-07-08T08:34:58;40.20;25.00
37232;DHT22;23125;48.156;15.954;2023-07-08T08:37:24;40.20;24.70
37232;DHT22;23125;48.156;15.954;2023-07-08T08:39:50;40.20;25.00
37232;DHT22;23125;48.156;15.954;2023-07-08T08:45:04;40.50;25.10
37232;DHT22;23125;48.156;15.954;2023-07-08T08:52:42;41.00;25.10
37232;DHT22;23125;48.156;15.954;2023-07-08T08:55:11;40.90;24.60
37232;DHT22;23125;48.156;15.954;2023-07-08T09:00:07;40.70;24.60
37232;DHT22;23125;48.156;15.954;2023-07-08T09:05:11;40.70;24.40
37232;DHT22;23125;48.156;15.954;2023-07-08T09:07:44;40.60;24.40
37232;DHT22;23125;48.156;15.954;2023-07-08T09:13:17;40.40;24.40
37232;DHT22;23125;48.156;15.954;2023-07-08T09:15:45;40.30;24.20
37232;DHT22;23125;48.156;15.954;2023-07-08T09:18:15;40.40;24.60
37232;DHT22;23125;48.156;15.954;2023-07-08T09:20:42;40.40;24.60
37232;DHT22;23125;48.156;15.954;2023-07-08T09:23:19;40.40;24.30
37232;DHT22;23125;48.156;15.954;2023-07-08T09:26:00;40.40;24.30
37232;DHT22;23125;48.156;15.954;2023-07-08T09:31:03;40.50;24.20
37232;DHT22;23125;48.156;15.954;2023-07-08T09:33:31;40.50;23.80
37232;DHT22;23125;48.156;15.954;2023-07-08T09:35:57;40.40;24.40
37232;DHT22;23125;48.156;15.954;2023-07-08T09:38:23;40.50;24.10
37232;DHT22;23125;48.156;15.954;2023-07-08T09:40:49;40.60;24.10
37232;DHT22;23125;48.156;15.954;2023-07-08T09:43:25;40.50;23.70
37232;DHT22;23125;48.156;15.954;2023-07-08T09:45:51;40.70;24.00
37232;DHT22;23125;48.156;15.954;2023-07-08T09:48:25;40.70;23.80
37232;DHT22;23125;48.156;15.954;2023-07-08T09:50:52;40.70;23.80
37232;DHT22;23125;48.156;15.954;2023-07-08T09:53:18;40.70;23.50
37232;DHT22;23125;48.156;15.954;2023-07-08T09:55:44;40.50;23.30
37232;DHT22;23125;48.156;15.954;2023-07-08T09:58:11;40.50;23.50
37232;DHT22;23125;48.156;15.954;2023-07-08T10:00:39;40.50;23.60
37232;DHT22;23125;48.156;15.954;2023-07-08T10:03:09;40.30;22.90
37232;DHT22;23125;48.156;15.954;2023-07-08T10:05:41;39.80;22.70
37232;DHT22;23125;48.156;15.954;2023-07-08T10:08:41;39.40;22.70
37232;DHT22;23125;48.156;15.954;2023-07-08T10:11:31;38.90;22.80
37232;DHT22;23125;48.156;15.954;2023-07-08T10:13:49;38.50;23.10
37232;DHT22;23125;48.156;15.954;2023-07-08T10:16:17;38.00;23.40
37232;DHT22;23125;48.156;15.954;2023-07-08T10:18:46;37.60;23.50
37232;DHT22;23125;48.156;15.954;2023-07-08T10:21:31;37.10;23.60
37232;DHT22;23125;48.156;15.954;2023-07-08T10:26:27;36.40;24.20
37232;DHT22;23125;48.156;15.954;2023-07-08T10:31:33;35.70;24.80
37232;DHT22;23125;48.156;15.954;2023-07-08T10:36:40;35.20;25.50
37232;DHT22;23125;48.156;15.954;2023-07-08T10:44:30;34.50;26.20
37232;DHT22;23125;48.156;15.954;2023-07-08T10:47:04;34.30;26.30
37232;DHT22;23125;48.156;15.954;2023-07-08T10:52:23;34.00;26.70
37232;DHT22;23125;48.156;15.954;2023-07-08T11:02:33;33.40;27.50
37232;DHT22;23125;48.156;15.954;2023-07-08T11:07:39;33.30;28.00
37232;DHT22;23125;48.156;15.954;2023-07-08T11:10:10;33.20;28.30
37232;DHT22;23125;48.156;15.954;2023-07-08T11:12:44;33.10;28.20
37232;DHT22;23125;48.156;15.954;2023-07-08T11:15:26;33.00;28.60
37232;DHT22;23125;48.156;15.954;2023-07-08T11:25:37;32.80;28.90
37232;DHT22;23125;48.156;15.954;2023-07-08T11:28:04;32.80;29.10
37232;DHT22;23125;48.156;15.954;2023-07-08T11:30:32;32.80;29.20
37232;DHT22;23125;48.156;15.954;2023-07-08T11:33:02;32.80;29.30
37232;DHT22;23125;48.156;15.954;2023-07-08T11:35:36;32.70;29.30
37232;DHT22;23125;48.156;15.954;2023-07-08T11:38:04;32.70;29.40
37232;DHT22;23125;48.156;15.954;2023-07-08T11:40:30;32.70;29.60
37232;DHT22;23125;48.156;15.954;2023-07-08T11:43:02;32.60;29.60
37232;DHT22;23125;48.156;15.954;2023-07-08T11:45:32;32.60;29.60
37232;DHT22;23125;48.156;15.954;2023-07-08T11:48:31;32.60;30.00
37232;DHT22;23125;48.156;15.954;2023-07-08T11:50:50;32.60;29.70
37232;DHT22;23125;48.156;15.954;2023-07-08T11:56:02;32.70;29.90
37232;DHT22;23125;48.156;15.954;2023-07-08T11:58:31;32.60;29.80
37232;DHT22;23125;48.156;15.954;2023-07-08T12:00:58;32.70;29.90
37232;DHT22;23125;48.156;15.954;2023-07-08T12:03:29;32.70;30.00
37232;DHT22;23125;48.156;15.954;2023-07-08T12:05:57;32.70;30.00
37232;DHT22;23125;48.156;15.954;2023-07-08T12:08:22;32.70;30.00
37232;DHT22;23125;48.156;15.954;2023-07-08T12:10:58;32.70;30.00
37232;DHT22;23125;48.156;15.954;2023-07-08T12:13:24;32.70;30.00
37232;DHT22;23125;48.156;15.954;2023-07-08T12:15:50;32.80;30.10
37232;DHT22;23125;48.156;15.954;2023-07-08T12:20:43;32.70;30.10
37232;DHT22;23125;48.156;15.954;2023-07-08T12:23:13;32.80;30.10
37232;DHT22;23125;48.156;15.954;2023-07-08T12:25:39;32.80;30.20
37232;DHT22;23125;48.156;15.954;2023-07-08T12:28:04;32.80;30.20
37232;DHT22;23125;48.156;15.954;2023-07-08T12:30:31;32.80;30.20
37232;DHT22;23125;48.156;15.954;2023-07-08T12:32:58;32.80;30.30
37232;DHT22;23125;48.156;15.954;2023-07-08T12:35:28;32.90;30.40
37232;DHT22;23125;48.156;15.954;2023-07-08T12:37:55;32.90;30.30
37232;DHT22;23125;48.156;15.954;2023-07-08T12:40:23;32.90;30.20
37232;DHT22;23125;48.156;15.954;2023-07-08T12:42:49;32.80;30.10
37232;DHT22;23125;48.156;15.954;2023-07-08T12:45:16;32.80;30.20
37232;DHT22;23125;48.156;15.954;2023-07-08T12:47:44;32.80;30.30
37232;DHT22;23125;48.156;15.954;2023-07-08T12:50:11;32.70;30.20
37232;DHT22;23125;48.156;15.954;2023-07-08T12:52:38;32.70;30.10
37232;DHT22;23125;48.156;15.954;2023-07-08T12:55:04;32.70;30.20
37232;DHT22;23125;48.156;15.954;2023-07-08T12:57:30;32.70;30.40
37232;DHT22;23125;48.156;15.954;2023-07-08T12:59:56;32.70;30.60
37232;DHT22;23125;48.156;15.954;2023-07-08T13:02:22;32.70;30.70
37232;DHT22;23125;48.156;15.954;2023-07-08T13:04:56;32.80;30.70
37232;DHT22;23125;48.156;15.954;2023-07-08T13:07:39;32.80;30.50
37232;DHT22;23125;48.156;15.954;2023-07-08T13:10:07;32.80;30.50
37232;DHT22;23125;48.156;15.954;2023-07-08T13:12:34;32.80;30.50
37232;DHT22;23125;48.156;15.954;2023-07-08T13:15:03;32.80;30.50
37232;DHT22;23125;48.156;15.954;2023-07-08T13:17:30;32.80;30.70
37232;DHT22;23125;48.156;15.954;2023-07-08T13:19:56;32.90;30.80
37232;DHT22;23125;48.156;15.954;2023-07-08T13:22:22;33.00;30.90
37232;DHT22;23125;48.156;15.954;2023-07-08T13:24:49;33.00;31.00
37232;DHT22;23125;48.156;15.954;2023-07-08T13:27:24;33.00;31.00
37232;DHT22;23125;48.156;15.954;2023-07-08T13:29:54;33.10;31.10
37232;DHT22;23125;48.156;15.954;2023-07-08T13:32:20;33.10;31.00
37232;DHT22;23125;48.156;15.954;2023-07-08T13:34:48;33.10;31.00
37232;DHT22;23125;48.156;15.954;2023-07-08T13:37:15;33.10;31.10
37232;DHT22;23125;48.156;15.954;2023-07-08T13:39:44;33.10;31.00
37232;DHT22;23125;48.156;15.954;2023-07-08T13:42:11;33.00;31.00
37232;DHT22;23125;48.156;15.954;2023-07-08T13:44:44;33.00;31.10
37232;DHT22;23125;48.156;15.954;2023-07-08T13:50:07;33.00;30.90
37232;DHT22;23125;48.156;15.954;2023-07-08T13:52:37;32.90;31.00
37232;DHT22;23125;48.156;15.954;2023-07-08T13:55:15;32.80;31.00
37232;DHT22;23125;48.156;15.954;2023-07-08T13:57:41;32.80;31.10
37232;DHT22;23125;48.156;15.954;2023-07-08T14:00:07;32.70;31.20
37232;DHT22;23125;48.156;15.954;2023-07-08T14:02:33;32.70;31.30
37232;DHT22;23125;48.156;15.954;2023-07-08T14:05:00;32.70;31.50
37232;DHT22;23125;48.156;15.954;2023-07-08T14:07:28;32.80;31.50
37232;DHT22;23125;48.156;15.954;2023-07-08T14:09:54;32.80;31.40
37232;DHT22;23125;48.156;15.954;2023-07-08T14:12:20;32.80;31.40
37232;DHT22;23125;48.156;15.954;2023-07-08T14:14:46;32.80;31.50
37232;DHT22;23125;48.156;15.954;2023-07-08T14:17:14;32.80;31.40
37232;DHT22;23125;48.156;15.954;2023-07-08T14:19:41;32.80;31.40
37232;DHT22;23125;48.156;15.954;2023-07-08T14:22:19;32.80;31.50
37232;DHT22;23125;48.156;15.954;2023-07-08T14:24:45;32.80;31.50
37232;DHT22;23125;48.156;15.954;2023-07-08T14:27:11;32.70;31.30
37232;DHT22;23125;48.156;15.954;2023-07-08T14:29:42;32.70;31.40
37232;DHT22;23125;48.156;15.954;2023-07-08T14:32:15;32.70;31.50
37232;DHT22;23125;48.156;15.954;2023-07-08T14:34:41;32.70;31.50
37232;DHT22;23125;48.156;15.954;2023-07-08T14:37:13;32.70;31.50
37232;DHT22;23125;48.156;15.954;2023-07-08T14:39:40;32.70;31.50
37232;DHT22;23125;48.156;15.954;2023-07-08T14:42:07;32.70;31.50
37232;DHT22;23125;48.156;15.954;2023-07-08T14:44:35;32.70;31.50
37232;DHT22;23125;48.156;15.954;2023-07-08T14:47:01;32.70;31.60
37232;DHT22;23125;48.156;15.954;2023-07-08T14:49:27;32.70;31.50
37232;DHT22;23125;48.156;15.954;2023-07-08T14:51:53;32.70;31.50
37232;DHT22;23125;48.156;15.954;2023-07-08T14:54:20;32.60;31.30
37232;DHT22;23125;48.156;15.954;2023-07-08T14:56:46;32.60;31.40
37232;DHT22;23125;48.156;15.954;2023-07-08T14:59:23;32.60;31.30
37232;DHT22;23125;48.156;15.954;2023-07-08T15:01:49;32.60;31.30
37232;DHT22;23125;48.156;15.954;2023-07-08T15:04:16;32.50;31.20
37232;DHT22;23125;48.156;15.954;2023-07-08T15:06:42;32.50;31.20
37232;DHT22;23125;48.156;15.954;2023-07-08T15:09:08;32.40;31.30
37232;DHT22;23125;48.156;15.954;2023-07-08T15:11:34;32.40;31.40
37232;DHT22;23125;48.156;15.954;2023-07-08T15:14:03;32.40;31.50
37232;DHT22;23125;48.156;15.954;2023-07-08T15:16:30;32.40;31.50
37232;DHT22;23125;48.156;15.954;2023-07-08T15:18:56;32.40;32.20
37232;DHT22;23125;48.156;15.954;2023-07-08T15:21:23;32.50;31.70
37232;DHT22;23125;48.156;15.954;2023-07-08T15:23:48;32.60;31.80
37232;DHT22;23125;48.156;15.954;2023-07-08T15:26:14;32.60;31.80
37232;DHT22;23125;48.156;15.954;2023-07-08T15:31:10;32.70;31.90
37232;DHT22;23125;48.156;15.954;2023-07-08T15:33:37;32.80;31.90
37232;DHT22;23125;48.156;15.954;2023-07-08T15:36:02;32.80;31.80
37232;DHT22;23125;48.156;15.954;2023-07-08T15:38:28;32.80;31.80
37232;DHT22;23125;48.156;15.954;2023-07-08T15:40:54;32.80;31.80
37232;DHT22;23125;48.156;15.954;2023-07-08T15:43:19;32.80;31.80
37232;DHT22;23125;48.156;15.954;2023-07-08T15:45:45;32.80;31.70
37232;DHT22;23125;48.156;15.954;2023-07-08T15:48:14;32.80;31.70
37232;DHT22;23125;48.156;15.954;2023-07-08T15:50:40;32.70;31.60
37232;DHT22;23125;48.156;15.954;2023-07-08T15:53:07;32.70;31.70
37232;DHT22;23125;48.156;15.954;2023-07-08T15:55:36;32.60;32.40
37232;DHT22;23125;48.156;15.954;2023-07-08T15:58:04;32.60;31.80
37232;DHT22;23125;48.156;15.954;2023-07-08T16:00:33;32.60;31.90
37232;DHT22;23125;48.156;15.954;2023-07-08T16:03:00;32.50;32.00
37232;DHT22;23125;48.156;15.954;2023-07-08T16:05:27;32.60;32.20
37232;DHT22;23125;48.156;15.954;2023-07-08T16:07:54;32.60;32.20
37232;DHT22;23125;48.156;15.954;2023-07-08T16:10:20;32.50;32.10
37232;DHT22;23125;48.156;15.954;2023-07-08T16:12:47;32.60;32.20
37232;DHT22;23125;48.156;15.954;2023-07-08T16:15:23;32.60;32.30
37232;DHT22;23125;48.156;15.954;2023-07-08T16:17:49;32.50;32.30
37232;DHT22;23125;48.156;15.954;2023-07-08T16:20:16;32.60;32.30
37232;DHT22;23125;48.156;15.954;2023-07-08T16:22:44;32.50;32.20
37232;DHT22;23125;48.156;15.954;2023-07-08T16:25:13;32.50;32.30